Time;durP1;ratioP1;P1;durP2;ratioP2;P2;SDS_P1;SDS_P2;PMS_P1;PMS_P2;Temp;Humidity;BMP_temperature;BMP_pressure;BME280_temperature;BME280_humidity;BME280_pressure;Samples;Min_cycle;Max_cycle;Signal;HPM_P1;HPM_P2
2022/07/29 00:00:31;;;;;;;11.03;6.25;;;;;;;18.54;78.82;94878.70;1652351;85;21594;-55
2022/07/29 00:02:59;;;;;;;12.75;5.90;;;;;;;18.56;78.92;94876.17;1655008;85;20983;-55
2022/07/29 00:05:27;;;;;;;9.55;6.47;;;;;;;18.58;78.77;94876.44;1671813;84;23140;-55
2022/07/29 00:07:56;;;;;;;10.40;6.30;;;;;;;18.59;78.59;94880.75;1652732;85;20974;-55
2022/07/29 00:10:24;;;;;;;5.80;5.22;;;;;;;18.57;78.91;94874.92;1666884;85;21475;-55
2022/07/29 00:12:53;;;;;;;10.30;6.20;;;;;;;18.56;79.45;94869.83;1655905;85;21054;-55
2022/07/29 00:15:22;;;;;;;9.13;5.90;;;;;;;18.52;79.97;94874.87;1662492;85;21027;-54
2022/07/29 00:17:52;;;;;;;12.90;6.20;;;;;;;18.47;80.31;94874.95;1653914;84;21467;-55
2022/07/29 00:20:20;;;;;;;6.78;6.03;;;;;;;18.43;80.49;94869.49;1653093;85;21505;-55
2022/07/29 00:22:49;;;;;;;10.35;5.92;;;;;;;18.36;80.58;94871.31;1659292;84;21023;-54
2022/07/29 00:25:18;;;;;;;8.08;4.90;;;;;;;18.31;80.66;94864.44;1620972;86;20983;-55
2022/07/29 00:27:46;;;;;;;8.50;6.05;;;;;;;18.29;80.78;94863.42;1667346;85;21023;-54
2022/07/29 00:30:14;;;;;;;7.15;6.10;;;;;;;18.23;81.00;94866.13;1680913;84;21416;-54
2022/07/29 00:32:43;;;;;;;8.40;5.55;;;;;;;18.21;81.10;94867.86;1664130;84;20967;-53
2022/07/29 00:37:57;;;;;;;7.58;6.58;;;;;;;18.19;81.08;94866.98;1665704;85;21012;-53
2022/07/29 00:40:25;;;;;;;11.12;6.20;;;;;;;18.17;81.07;94865.19;1663839;85;20963;-53
2022/07/29 00:42:53;;;;;;;9.23;6.85;;;;;;;18.15;81.15;94869.09;1677044;85;21252;-54
2022/07/29 00:45:21;;;;;;;10.35;6.70;;;;;;;18.13;81.28;94872.97;1684816;85;21550;-55
2022/07/29 00:47:50;;;;;;;11.60;6.17;;;;;;;18.08;81.24;94863.33;1644912;86;21133;-54
2022/07/29 00:50:18;;;;;;;7.53;6.70;;;;;;;18.03;81.29;94865.42;1665796;84;20979;-55
2022/07/29 00:52:47;;;;;;;10.38;6.00;;;;;;;17.99;81.45;94865.52;1645013;85;21181;-54
2022/07/29 00:55:16;;;;;;;8.25;6.30;;;;;;;17.96;81.48;94867.27;1659590;84;21235;-54
2022/07/29 00:57:45;;;;;;;9.00;6.97;;;;;;;17.93;81.42;94868.86;1662801;84;21003;-54
2022/07/29 01:00:20;;;;;;;6.67;5.97;;;;;;;17.91;81.66;94868.59;1658833;85;21161;-55
2022/07/29 01:02:50;;;;;;;9.20;6.35;;;;;;;17.89;81.87;94869.72;1635603;86;21019;-54
2022/07/29 01:05:19;;;;;;;10.95;6.00;;;;;;;17.84;82.32;94863.47;1677325;85;20955;-54
2022/07/29 01:07:51;;;;;;;8.65;5.45;;;;;;;17.78;82.93;94861.23;1685086;84;21031;-54
2022/07/29 01:10:19;;;;;;;12.78;6.20;;;;;;;17.72;83.54;94854.86;1669839;84;21028;-55
2022/07/29 01:12:49;;;;;;;8.03;6.22;;;;;;;17.67;84.09;94846.59;1656894;85;21035;-54
2022/07/29 01:15:17;;;;;;;10.80;6.58;;;;;;;17.63;84.67;94860.59;1674672;85;21109;-55
2022/07/29 01:18:25;;;;;;;10.08;7.22;;;;;;;17.62;85.14;94853.50;1664087;85;20960;-55
2022/07/29 01:21:30;;;;;;;19.73;8.48;;;;;;;17.63;85.13;94843.91;1657399;85;21124;-55
2022/07/29 01:24:06;;;;;;;;;;;;;;;17.66;85.01;94849.88;1652366;85;21067;-53
2022/07/29 01:27:15;;;;;;;31.62;17.87;;;;;;;17.68;84.63;94844.58;1641999;85;20151;-55
2022/07/29 01:29:47;;;;;;;33.78;18.05;;;;;;;17.64;84.53;94834.30;1659864;85;20980;-54
2022/07/29 01:32:20;;;;;;;29.80;15.28;;;;;;;17.57;84.48;94837.50;1666708;84;20983;-54
2022/07/29 01:34:58;;;;;;;15.15;9.18;;;;;;;17.52;84.55;94843.77;1657055;84;21882;-54
2022/07/29 01:37:57;;;;;;;11.10;7.60;;;;;;;17.50;84.55;94835.91;1653412;84;21030;-54
2022/07/29 01:40:48;;;;;;;13.95;7.75;;;;;;;17.51;84.54;94831.12;1650845;86;21087;-55
2022/07/29 01:43:22;;;;;;;11.68;7.90;;;;;;;17.50;84.63;94826.81;1650471;85;21024;-54
2022/07/29 01:46:02;;;;;;;11.80;8.78;;;;;;;17.49;84.35;94829.45;1661848;86;21038;-55
2022/07/29 01:48:38;;;;;;;18.12;9.85;;;;;;;17.50;84.31;94828.20;1659936;84;21926;-55
2022/07/29 01:51:17;;;;;;;11.25;8.48;;;;;;;17.50;84.51;94830.98;1675424;85;20971;-54
2022/07/29 01:53:57;;;;;;;19.10;8.75;;;;;;;17.48;84.64;94828.67;1667664;84;21015;-54
2022/07/29 01:56:24;;;;;;;12.03;8.45;;;;;;;17.43;84.72;94835.59;1665939;85;20988;-56
2022/07/29 01:58:52;;;;;;;16.30;9.30;;;;;;;17.36;84.83;94832.61;1657635;85;21172;-54
2022/07/29 02:01:20;;;;;;;22.85;8.78;;;;;;;17.30;85.30;94835.16;1643245;86;21798;-54
2022/07/29 02:03:49;;;;;;;10.30;6.70;;;;;;;17.27;85.53;94829.93;1685061;85;21054;-54
2022/07/29 02:06:21;;;;;;;11.88;7.03;;;;;;;17.25;85.52;94832.44;1673014;84;21557;-54
2022/07/29 02:08:50;;;;;;;11.57;5.90;;;;;;;17.22;85.59;94831.25;1657058;84;21058;-54
2022/07/29 02:11:18;;;;;;;7.40;6.28;;;;;;;17.21;85.61;94825.55;1617142;86;20998;-55
2022/07/29 02:13:47;;;;;;;9.50;6.28;;;;;;;17.16;85.68;94829.03;1654720;85;21185;-53
2022/07/29 02:16:16;;;;;;;11.55;6.22;;;;;;;17.19;85.70;94834.40;1634864;86;21479;-55
2022/07/29 02:18:45;;;;;;;8.68;6.55;;;;;;;17.25;85.55;94831.69;1663621;85;21013;-54
2022/07/29 02:21:13;;;;;;;10.65;6.65;;;;;;;17.28;85.46;94834.88;1649565;85;21543;-54
2022/07/29 02:23:43;;;;;;;9.60;7.25;;;;;;;17.26;85.51;94829.05;1660414;85;21032;-55
2022/07/29 02:26:12;;;;;;;6.25;5.40;;;;;;;17.20;85.59;94823.41;1642947;85;21253;-54
2022/07/29 02:28:40;;;;;;;7.75;6.10;;;;;;;17.14;85.84;94819.03;1634986;86;21102;-55
2022/07/29 02:31:09;;;;;;;12.18;7.20;;;;;;;17.07;85.97;94820.85;1630255;86;21152;-54
2022/07/29 02:33:37;;;;;;;10.32;7.03;;;;;;;17.02;86.03;94831.26;1650636;85;21017;-54
2022/07/29 02:36:07;;;;;;;11.45;7.12;;;;;;;16.99;86.30;94830.84;1643269;86;21072;-55
2022/07/29 02:38:50;;;;;;;11.80;6.85;;;;;;;16.92;86.82;94832.02;1635368;86;21241;-55
2022/07/29 02:41:35;;;;;;;10.75;6.62;;;;;;;16.87;87.20;94836.14;1649764;86;21074;-54
2022/07/29 02:44:08;;;;;;;11.35;7.83;;;;;;;16.84;87.33;94832.91;1632372;86;21034;-55
2022/07/29 02:46:37;;;;;;;8.40;6.40;;;;;;;16.85;87.14;94829.66;1641758;86;21035;-54
2022/07/29 02:49:16;;;;;;;9.95;6.42;;;;;;;16.81;87.04;94836.05;1628179;87;21407;-54
2022/07/29 02:51:57;;;;;;;6.50;5.53;;;;;;;16.75;87.25;94828.89;1624192;86;21169;-54
2022/07/29 02:54:46;;;;;;;9.13;5.60;;;;;;;16.69;87.38;94832.23;1642302;87;20971;-54
2022/07/29 02:57:21;;;;;;;7.97;6.53;;;;;;;16.66;87.60;94832.56;1656731;85;21073;-56
2022/07/29 02:59:50;;;;;;;8.45;6.62;;;;;;;16.70;87.80;94828.20;1667937;85;21069;-55
2022/07/29 03:02:18;;;;;;;7.85;6.10;;;;;;;16.76;87.80;94831.81;1656353;85;20987;-55
2022/07/29 03:04:48;;;;;;;12.88;6.25;;;;;;;16.82;87.58;94833.42;1664122;83;21818;-53
2022/07/29 03:07:19;;;;;;;9.05;6.95;;;;;;;16.88;87.04;94833.50;1670793;85;21051;-55
2022/07/29 03:09:50;;;;;;;12.80;7.05;;;;;;;16.90;87.00;94844.89;1661915;85;21058;-53
2022/07/29 03:12:18;;;;;;;14.07;7.30;;;;;;;16.87;87.22;94838.92;1663179;85;21142;-53
2022/07/29 03:14:46;;;;;;;8.03;6.90;;;;;;;16.86;87.46;94833.19;1638664;85;20982;-54
2022/07/29 03:17:16;;;;;;;9.70;5.83;;;;;;;16.82;87.31;94830.64;1671377;84;21246;-54
2022/07/29 03:19:46;;;;;;;6.97;6.22;;;;;;;16.80;87.18;94830.36;1666392;84;21588;-55
2022/07/29 03:22:14;;;;;;;7.03;5.92;;;;;;;16.81;86.95;94832.50;1615773;88;20980;-55
2022/07/29 03:24:42;;;;;;;11.78;6.47;;;;;;;16.80;87.10;94835.92;1648212;86;21145;-54
2022/07/29 03:27:11;;;;;;;9.60;6.17;;;;;;;16.77;87.29;94829.17;1676530;84;21563;-54
2022/07/29 03:29:40;;;;;;;7.92;5.80;;;;;;;16.71;87.25;94833.89;1686567;84;21023;-54
2022/07/29 03:32:09;;;;;;;7.15;5.72;;;;;;;16.67;87.50;94834.09;1670215;84;21446;-54
2022/07/29 03:34:38;;;;;;;8.43;6.45;;;;;;;16.69;87.76;94835.01;1661944;84;21039;-54
2022/07/29 03:37:06;;;;;;;11.90;6.92;;;;;;;16.72;87.86;94837.56;1665632;85;20963;-55
2022/07/29 03:39:39;;;;;;;9.55;6.92;;;;;;;16.75;87.74;94835.84;1663752;85;20975;-55
2022/07/29 03:42:07;;;;;;;13.22;8.10;;;;;;;16.75;87.63;94835.84;1664134;85;22069;-55
2022/07/29 03:44:36;;;;;;;13.90;8.85;;;;;;;16.76;87.48;94838.75;1664284;85;20963;-55
2022/07/29 03:47:06;;;;;;;23.45;10.23;;;;;;;16.78;87.59;94845.98;1670058;85;20990;-54
2022/07/29 03:49:34;;;;;;;13.62;8.90;;;;;;;16.83;87.67;94843.89;1669893;84;20987;-54
2022/07/29 03:52:02;;;;;;;14.20;8.50;;;;;;;16.85;87.50;94843.56;1647404;86;21110;-54
2022/07/29 03:54:30;;;;;;;12.33;7.50;;;;;;;16.83;87.51;94843.28;1664093;85;21230;-54
2022/07/29 03:56:59;;;;;;;9.75;7.70;;;;;;;16.82;87.38;94842.36;1654800;85;21038;-56
2022/07/29 03:59:27;;;;;;;16.12;7.72;;;;;;;16.83;87.35;94846.67;1639173;84;21082;-54
2022/07/29 04:01:56;;;;;;;13.48;7.58;;;;;;;16.85;87.47;94846.95;1661471;85;21424;-55
2022/07/29 04:04:25;;;;;;;17.27;8.00;;;;;;;16.85;87.55;94846.34;1652775;85;21460;-56
2022/07/29 04:06:53;;;;;;;10.50;8.05;;;;;;;16.87;87.35;94843.09;1655131;85;21246;-55
2022/07/29 04:09:21;;;;;;;14.75;7.17;;;;;;;16.87;87.41;94848.64;1655963;85;21530;-53
2022/07/29 04:11:50;;;;;;;11.75;7.53;;;;;;;16.92;87.45;94845.17;1667848;85;21030;-54
2022/07/29 04:14:20;;;;;;;8.98;6.60;;;;;;;16.97;87.43;94838.91;1667247;85;21091;-55
2022/07/29 04:16:50;;;;;;;11.08;7.83;;;;;;;17.05;87.22;94835.84;1673006;84;21014;-54
2022/07/29 04:19:18;;;;;;;9.38;7.55;;;;;;;17.12;87.16;94832.02;1668049;85;21135;-55
2022/07/29 04:21:47;;;;;;;8.63;7.00;;;;;;;17.22;87.04;94826.47;1654704;85;21027;-55
2022/07/29 04:24:15;;;;;;;9.20;6.58;;;;;;;17.31;86.68;94828.34;1669274;84;21002;-54
2022/07/29 04:26:46;;;;;;;8.20;6.37;;;;;;;17.36;86.05;94827.05;1651091;85;21073;-53
2022/07/29 04:29:16;;;;;;;6.70;6.10;;;;;;;17.44;85.73;94824.60;1665271;84;21049;-54
2022/07/29 04:31:43;;;;;;;7.85;6.90;;;;;;;17.51;85.41;94830.50;1663832;85;21138;-55
2022/07/29 04:34:12;;;;;;;8.10;6.92;;;;;;;17.57;85.06;94831.93;1673206;84;21002;-54
2022/07/29 04:36:40;;;;;;;9.25;7.67;;;;;;;17.63;84.73;94835.55;1647280;86;21039;-54
2022/07/29 04:39:10;;;;;;;21.33;13.43;;;;;;;17.72;84.38;94840.33;1661964;85;21070;-54
2022/07/29 04:41:38;;;;;;;10.35;8.43;;;;;;;17.83;84.08;94838.28;1651511;84;21011;-57
2022/07/29 04:44:07;;;;;;;12.37;7.40;;;;;;;17.95;83.61;94832.33;1652693;84;21079;-57
2022/07/29 04:46:35;;;;;;;9.43;7.05;;;;;;;18.08;83.20;94827.14;1656257;85;21481;-58
2022/07/29 04:49:04;;;;;;;17.32;8.33;;;;;;;18.19;82.83;94825.20;1643594;86;21478;-55
2022/07/29 04:51:31;;;;;;;13.70;8.00;;;;;;;18.30;82.14;94828.09;1662088;85;21128;-56
2022/07/29 04:54:00;;;;;;;10.23;7.33;;;;;;;18.36;81.69;94825.35;1651221;85;21030;-58
2022/07/29 04:56:29;;;;;;;9.70;6.45;;;;;;;18.41;81.49;94822.61;1637828;86;21837;-57
2022/07/29 04:58:57;;;;;;;7.35;6.65;;;;;;;18.50;81.22;94816.84;1657984;85;21014;-56
2022/07/29 05:01:25;;;;;;;8.83;6.87;;;;;;;18.56;80.85;94821.84;1662043;85;20986;-59
2022/07/29 05:03:53;;;;;;;7.97;6.65;;;;;;;18.58;80.30;94822.09;1644779;85;20990;-57
2022/07/29 05:06:22;;;;;;;10.20;5.95;;;;;;;18.64;80.32;94819.35;1671325;85;21010;-57
2022/07/29 05:08:51;;;;;;;9.78;6.03;;;;;;;18.69;79.67;94827.75;1679471;85;22065;-57
2022/07/29 05:11:20;;;;;;;11.18;7.25;;;;;;;18.71;78.90;94827.24;1666498;85;21014;-57
2022/07/29 05:13:49;;;;;;;7.85;6.25;;;;;;;18.68;78.66;94826.84;1685872;84;21097;-57
2022/07/29 05:16:18;;;;;;;9.68;6.30;;;;;;;18.65;78.70;94828.59;1654946;84;21553;-58
2022/07/29 05:18:47;;;;;;;13.08;7.37;;;;;;;18.61;78.73;94825.93;1644210;85;21090;-57
2022/07/29 05:21:15;;;;;;;10.58;6.90;;;;;;;18.56;78.70;94821.84;1638789;86;21284;-57
2022/07/29 05:23:44;;;;;;;14.10;7.20;;;;;;;18.56;78.92;94824.63;1632124;86;21427;-57
2022/07/29 05:26:13;;;;;;;12.80;7.12;;;;;;;18.59;78.93;94824.23;1629708;86;21249;-57
2022/07/29 05:28:41;;;;;;;17.50;7.87;;;;;;;18.59;78.73;94825.02;1634378;86;21050;-58
2022/07/29 05:31:09;;;;;;;8.58;7.08;;;;;;;18.63;78.73;94824.15;1638878;86;21631;-57
2022/07/29 05:33:37;;;;;;;10.30;6.70;;;;;;;18.73;78.69;94821.93;1636973;86;21119;-57
2022/07/29 05:36:06;;;;;;;10.03;6.03;;;;;;;18.80;78.34;94818.05;1632220;86;21097;-57
2022/07/29 05:38:35;;;;;;;8.83;6.47;;;;;;;18.89;77.91;94816.47;1634930;86;21045;-58
2022/07/29 05:41:06;;;;;;;10.85;6.17;;;;;;;18.94;77.01;94819.91;1644705;85;21247;-59
2022/07/29 05:43:34;;;;;;;12.93;9.98;;;;;;;18.96;77.09;94821.56;1639463;85;21148;-55
2022/07/29 05:46:03;;;;;;;8.10;6.97;;;;;;;19.02;76.98;94818.81;1638097;86;21273;-59
2022/07/29 05:48:32;;;;;;;9.48;6.95;;;;;;;19.09;76.81;94817.70;1657516;85;21090;-55
2022/07/29 05:51:01;;;;;;;16.90;12.37;;;;;;;19.21;76.64;94819.29;1641061;85;21090;-58
2022/07/29 05:53:30;;;;;;;14.93;8.18;;;;;;;19.39;76.42;94816.70;1663179;85;21089;-54
2022/07/29 05:56:01;;;;;;;14.50;7.05;;;;;;;19.58;76.00;94814.34;1676685;85;21065;-58
2022/07/29 05:58:29;;;;;;;8.85;7.10;;;;;;;19.75;74.93;94806.02;1643153;85;22144;-61
2022/07/29 06:01:00;;;;;;;11.15;7.35;;;;;;;19.82;74.09;94804.89;1632134;86;21035;-61
2022/07/29 06:03:44;;;;;;;;;;;;;;;;;;;;;
2022/07/29 06:05:59;;;;;;;14.47;7.37;;;;;;;19.94;73.49;94815.45;1634304;85;21471;-58
2022/07/29 06:08:36;;;;;;;8.75;6.45;;;;;;;20.03;73.06;94814.59;1653809;84;21090;-57
2022/07/29 06:11:06;;;;;;;13.13;6.75;;;;;;;20.13;72.54;94814.46;1658562;84;21171;-56
2022/07/29 06:13:35;;;;;;;7.12;6.35;;;;;;;20.26;72.48;94802.92;1643138;85;21841;-58
2022/07/29 06:16:04;;;;;;;11.73;7.30;;;;;;;20.42;72.40;94809.77;1630935;84;21479;-55
2022/07/29 06:18:33;;;;;;;15.85;6.97;;;;;;;20.61;72.19;94810.77;1657261;84;21174;-52
2022/07/29 06:21:08;;;;;;;7.50;6.70;;;;;;;20.79;71.46;94810.23;1669775;84;21118;-56
2022/07/29 06:23:38;;;;;;;13.53;6.12;;;;;;;20.94;70.82;94803.09;1651307;84;21918;-61
2022/07/29 06:26:08;;;;;;;11.53;7.08;;;;;;;21.09;70.12;94800.02;1647728;85;21092;-59
2022/07/29 06:28:36;;;;;;;8.95;6.37;;;;;;;21.21;69.58;94797.28;1575322;88;21185;-58
2022/07/29 06:31:03;;;;;;;8.13;6.20;;;;;;;21.39;69.08;94802.30;1634089;84;21035;-62
2022/07/29 06:33:33;;;;;;;10.63;6.62;;;;;;;21.58;68.92;94801.20;1647365;84;21404;-55
2022/07/29 06:36:05;;;;;;;8.45;6.62;;;;;;;21.79;68.72;94800.98;1654047;84;21097;-60
2022/07/29 06:38:39;;;;;;;14.07;5.95;;;;;;;22.04;67.20;94794.95;1642069;85;21737;-56
2022/07/29 06:41:12;;;;;;;6.62;6.00;;;;;;;22.30;65.02;94793.85;1653193;84;22040;-56
2022/07/29 06:43:41;;;;;;;7.75;5.78;;;;;;;22.48;63.81;94796.69;1637018;85;21116;-60
2022/07/29 06:46:12;;;;;;;20.77;6.40;;;;;;;22.58;63.42;94800.02;1655421;83;21962;-61
2022/07/29 06:48:41;;;;;;;9.05;5.70;;;;;;;22.69;63.42;94793.55;1651105;85;22420;-60
2022/07/29 06:51:11;;;;;;;7.25;5.55;;;;;;;22.83;62.47;94796.61;1657313;84;21105;-56
2022/07/29 06:53:40;;;;;;;7.12;5.17;;;;;;;22.96;62.66;94789.06;1659693;83;21073;-55
2022/07/29 06:56:09;;;;;;;6.45;5.55;;;;;;;23.06;61.52;94787.41;1637315;84;21085;-62
2022/07/29 06:58:37;;;;;;;9.05;5.97;;;;;;;23.14;61.62;94781.99;1646227;85;21097;-56
2022/07/29 07:01:06;;;;;;;9.13;5.58;;;;;;;23.23;61.77;94778.17;1647419;85;21483;-58
2022/07/29 07:03:35;;;;;;;9.30;5.80;;;;;;;23.30;61.49;94773.39;1588326;88;21073;-57
2022/07/29 07:06:03;;;;;;;6.67;5.72;;;;;;;23.43;61.55;94779.08;1641226;84;21073;-58
2022/07/29 07:08:31;;;;;;;11.97;5.62;;;;;;;23.59;61.38;94776.70;1661205;85;21178;-59
2022/07/29 07:10:59;;;;;;;10.45;6.33;;;;;;;23.73;61.06;94770.53;1632636;85;21094;-57
2022/07/29 07:13:34;;;;;;;6.83;5.85;;;;;;;23.85;60.30;94775.48;1652324;84;21082;-62
2022/07/29 07:15:59;;;;;;;8.08;6.10;;;;;;;23.97;59.75;94773.27;1643216;84;21092;-64
2022/07/29 07:18:30;;;;;;;7.50;5.60;;;;;;;24.10;59.60;94767.83;1620089;86;21098;-59
2022/07/29 07:21:00;;;;;;;20.23;6.37;;;;;;;24.36;58.17;94766.50;1663435;83;21085;-60
2022/07/29 07:23:28;;;;;;;9.30;4.72;;;;;;;24.36;58.17;94766.50;1642821;84;21994;-56
2022/07/29 07:25:56;;;;;;;9.90;4.90;;;;;;;24.47;57.53;94768.37;1637226;85;21534;-57
2022/07/29 07:28:25;;;;;;;50.38;6.42;;;;;;;24.58;57.13;94768.96;1622978;85;21045;-60
2022/07/29 07:30:52;;;;;;;7.70;4.33;;;;;;;24.68;56.76;94763.68;1642544;84;21084;-58
2022/07/29 07:33:22;;;;;;;8.55;5.35;;;;;;;24.73;56.29;94764.25;1637640;85;21136;-60
2022/07/29 07:35:52;;;;;;;11.22;5.45;;;;;;;24.75;56.22;94765.88;1662803;84;21573;-57
2022/07/29 07:38:20;;;;;;;5.37;4.45;;;;;;;24.81;55.74;94769.34;1634953;85;21177;-58
2022/07/29 07:40:48;;;;;;;5.62;3.67;;;;;;;24.90;55.00;94762.64;1637147;84;21214;-62
2022/07/29 07:43:19;;;;;;;5.50;4.00;;;;;;;25.01;54.97;94763.84;1660863;84;21407;-60
2022/07/29 07:45:50;;;;;;;4.57;3.73;;;;;;;25.11;53.87;94764.17;1626590;85;21360;-61
2022/07/29 07:48:19;;;;;;;4.85;3.70;;;;;;;25.18;53.34;94760.70;1627389;86;21739;-60
2022/07/29 07:50:49;;;;;;;5.08;3.87;;;;;;;25.23;53.58;94759.84;1623000;85;21802;-61
2022/07/29 07:53:16;;;;;;;4.37;3.98;;;;;;;25.30;53.63;94764.18;1643830;85;21099;-57
2022/07/29 07:55:46;;;;;;;9.50;3.58;;;;;;;25.40;52.93;94770.91;1657752;85;21514;-57
2022/07/29 07:58:13;;;;;;;4.72;3.33;;;;;;;25.49;53.30;94764.06;1651486;85;21157;-58
2022/07/29 08:00:41;;;;;;;8.13;3.58;;;;;;;25.56;52.15;94770.44;1635712;85;21077;-60
2022/07/29 08:03:13;;;;;;;6.42;4.42;;;;;;;25.60;52.14;94768.05;1636890;85;21073;-58
2022/07/29 08:05:41;;;;;;;5.25;4.08;;;;;;;25.69;51.86;94771.17;1653652;83;21100;-58
2022/07/29 08:08:08;;;;;;;6.50;3.90;;;;;;;25.88;51.41;94779.52;1662469;85;21049;-58
2022/07/29 08:13:25;;;;;;;6.28;3.77;;;;;;;26.21;49.90;94775.28;1659033;85;21164;-58
2022/07/29 08:16:11;;;;;;;6.87;3.83;;;;;;;26.35;50.23;94778.92;1651558;84;21145;-57
2022/07/29 08:18:32;;;;;;;11.12;5.30;;;;;;;26.46;50.32;94775.81;1667334;84;21400;-58
2022/07/29 08:21:02;;;;;;;15.25;4.20;;;;;;;26.58;50.49;94777.09;1649514;84;21022;-59
2022/07/29 08:23:39;;;;;;;9.80;6.37;;;;;;;26.72;50.12;94781.37;1644677;85;21057;-58
2022/07/29 08:26:10;;;;;;;7.70;4.70;;;;;;;26.80;49.34;94778.58;1648771;85;21228;-59
2022/07/29 08:28:39;;;;;;;5.25;4.37;;;;;;;26.87;48.90;94776.49;1677281;84;21271;-58
2022/07/29 08:31:09;;;;;;;9.20;4.50;;;;;;;26.99;48.72;94768.58;1688179;83;21105;-58
2022/07/29 08:33:37;;;;;;;7.45;4.08;;;;;;;27.20;48.43;94769.31;1651792;84;21078;-58
2022/07/29 08:36:06;;;;;;;4.95;4.03;;;;;;;27.38;48.56;94766.88;1644524;85;21038;-56
2022/07/29 08:38:34;;;;;;;8.43;4.00;;;;;;;27.56;48.12;94755.95;1658017;84;21347;-56
2022/07/29 08:41:01;;;;;;;4.28;3.77;;;;;;;27.69;47.30;94760.72;1654321;85;22869;-57
2022/07/29 08:43:29;;;;;;;6.75;3.60;;;;;;;27.81;47.25;94757.70;1653056;84;21038;-60
2022/07/29 08:46:00;;;;;;;5.78;3.92;;;;;;;27.91;46.68;94769.34;1649466;84;21089;-60
2022/07/29 08:48:29;;;;;;;10.25;4.45;;;;;;;27.96;46.66;94752.84;1622456;86;21099;-56
2022/07/29 08:50:59;;;;;;;7.90;3.87;;;;;;;27.96;46.32;94764.16;1646310;84;21325;-64
2022/07/29 08:53:27;;;;;;;8.48;3.87;;;;;;;27.97;44.88;94757.19;1642128;85;21561;-58
2022/07/29 08:55:57;;;;;;;4.30;3.90;;;;;;;27.87;45.83;94766.13;1641622;84;21058;-59
2022/07/29 08:58:24;;;;;;;10.90;4.60;;;;;;;27.82;45.36;94761.40;1642711;84;21498;-57
2022/07/29 09:00:54;;;;;;;5.67;4.17;;;;;;;27.76;45.30;94757.95;1652660;84;20993;-58
2022/07/29 09:03:29;;;;;;;6.83;3.52;;;;;;;27.71;46.22;94753.23;1664303;83;21222;-57
2022/07/29 09:05:58;;;;;;;10.58;4.35;;;;;;;27.68;45.50;94757.80;1632395;85;21268;-58
2022/07/29 09:08:27;;;;;;;4.03;3.62;;;;;;;27.62;45.12;94750.14;1671108;84;21290;-58
2022/07/29 09:10:59;;;;;;;9.58;3.95;;;;;;;27.65;45.77;94758.28;1646657;84;21225;-59
2022/07/29 09:13:28;;;;;;;4.78;3.92;;;;;;;27.71;45.51;94750.41;1646055;84;21195;-57
2022/07/29 09:15:55;;;;;;;16.70;4.17;;;;;;;27.79;45.18;94756.84;1657445;85;21177;-59
2022/07/29 09:18:43;;;;;;;4.03;3.62;;;;;;;27.93;45.91;94755.39;1657276;85;21220;-60
2022/07/29 09:24:08;;;;;;;4.08;3.45;;;;;;;28.34;46.05;94748.06;1663497;83;21503;-61
2022/07/29 09:26:44;;;;;;;4.42;3.67;;;;;;;28.55;46.26;94740.19;1677547;83;21088;-57
2022/07/29 09:29:23;;;;;;;5.75;4.45;;;;;;;28.68;43.62;94742.83;1680674;85;21081;-57
2022/07/29 09:31:53;;;;;;;9.15;4.50;;;;;;;28.77;44.35;94735.19;1664027;85;21287;-60
2022/07/29 09:34:28;;;;;;;7.97;6.28;;;;;;;28.85;43.69;94733.09;1651323;85;21015;-60
2022/07/29 09:36:56;;;;;;;11.40;4.92;;;;;;;28.99;43.31;94735.19;1654183;84;22053;-55
2022/07/29 09:39:37;;;;;;;3.70;3.10;;;;;;;29.16;43.73;94730.37;1667054;84;21083;-57
2022/07/29 09:42:06;;;;;;;4.55;2.95;;;;;;;29.31;44.04;94730.34;1666670;84;21074;-58
2022/07/29 09:44:50;;;;;;;6.17;3.72;;;;;;;29.41;43.20;94728.41;1673481;84;21865;-63
2022/07/29 09:47:21;;;;;;;3.58;3.27;;;;;;;29.45;43.00;94732.38;1658802;85;21137;-62
2022/07/29 09:49:57;;;;;;;3.85;3.12;;;;;;;29.58;43.24;94729.34;1667224;84;21105;-60
2022/07/29 09:52:27;;;;;;;4.15;3.12;;;;;;;29.77;43.37;94734.56;1650602;85;21014;-62
2022/07/29 09:55:07;;;;;;;3.90;2.95;;;;;;;30.00;42.38;94731.06;1663909;85;21065;-59
2022/07/29 09:57:35;;;;;;;6.58;3.58;;;;;;;30.22;42.87;94721.70;1623203;86;21864;-63
2022/07/29 10:00:09;;;;;;;5.17;3.62;;;;;;;30.48;42.22;94726.08;1608288;87;21009;-60
2022/07/29 10:02:43;;;;;;;4.62;2.92;;;;;;;30.65;40.00;94719.81;1652552;85;21102;-58
2022/07/29 10:05:24;;;;;;;6.28;3.83;;;;;;;30.79;41.06;94712.50;1636304;86;21152;-56
2022/07/29 10:07:56;;;;;;;8.45;3.55;;;;;;;30.87;39.88;94706.08;1647637;85;21011;-63
2022/07/29 10:10:33;;;;;;;5.20;2.87;;;;;;;30.80;39.55;94716.85;1638313;84;21357;-60
2022/07/29 10:13:12;;;;;;;5.58;3.52;;;;;;;30.72;38.94;94713.30;1654502;85;21086;-57
2022/07/29 10:15:46;;;;;;;7.15;3.67;;;;;;;30.61;38.90;94705.27;1671363;84;21574;-61
2022/07/29 10:18:14;;;;;;;4.47;3.27;;;;;;;30.51;40.41;94705.77;1676968;84;21121;-62
2022/07/29 10:20:42;;;;;;;4.83;3.58;;;;;;;30.48;39.96;94703.36;1628005;85;21061;-57
2022/07/29 10:23:10;;;;;;;4.83;3.67;;;;;;;30.41;39.68;94702.73;1659358;85;21230;-57
2022/07/29 10:25:38;;;;;;;6.75;3.92;;;;;;;30.39;40.84;94703.32;1666501;84;21105;-63
2022/07/29 10:28:06;;;;;;;9.20;3.25;;;;;;;30.39;40.29;94705.39;1673098;84;21117;-60
2022/07/29 10:30:37;;;;;;;5.60;3.17;;;;;;;30.37;40.91;94701.73;1648106;85;21538;-65
2022/07/29 10:33:38;;;;;;;8.85;4.25;;;;;;;30.27;41.43;94707.94;1662627;85;21046;-60
2022/07/29 10:36:40;;;;;;;8.15;3.70;;;;;;;30.17;41.56;94698.52;1670397;84;21139;-60
2022/07/29 10:39:26;;;;;;;6.77;4.10;;;;;;;30.24;42.31;94699.81;1677091;84;20998;-61
2022/07/29 10:42:21;;;;;;;12.50;3.42;;;;;;;30.04;41.71;94700.88;1658176;84;21104;-61
2022/07/29 10:44:48;;;;;;;6.12;3.90;;;;;;;29.79;42.14;94704.30;1637204;85;21035;-58
2022/07/29 10:47:24;;;;;;;13.00;4.95;;;;;;;29.46;42.32;94699.12;1675845;84;21045;-67
2022/07/29 10:50:01;;;;;;;4.87;3.72;;;;;;;29.17;43.00;94706.37;1622085;87;21387;-59
2022/07/29 10:53:00;;;;;;;6.83;3.75;;;;;;;28.87;43.16;94712.04;1654829;85;21047;-61
2022/07/29 10:55:42;;;;;;;5.00;3.80;;;;;;;28.57;43.95;94707.14;1656042;85;21538;-62
2022/07/29 10:58:18;;;;;;;10.32;3.37;;;;;;;28.39;44.73;94703.28;1631149;85;21169;-60
2022/07/29 11:00:50;;;;;;;4.25;3.77;;;;;;;28.24;44.83;94707.47;1632535;86;21087;-61
2022/07/29 11:03:46;;;;;;;6.45;4.33;;;;;;;28.12;45.13;94715.56;1641165;86;21074;-61
2022/07/29 11:06:14;;;;;;;5.30;3.83;;;;;;;27.96;44.94;94717.48;1647346;85;21054;-61
2022/07/29 11:08:41;;;;;;;8.35;3.83;;;;;;;27.77;45.48;94716.31;1634027;86;21069;-60
2022/07/29 11:11:24;;;;;;;8.10;3.87;;;;;;;27.58;45.95;94715.83;1620989;84;21636;-58
2022/07/29 11:13:54;;;;;;;4.17;3.70;;;;;;;27.38;46.90;94718.84;1662696;85;21070;-62
2022/07/29 11:16:23;;;;;;;9.13;4.30;;;;;;;27.07;48.02;94735.48;1664399;84;21138;-61
2022/07/29 11:19:17;;;;;;;11.80;5.10;;;;;;;26.79;48.47;94743.95;1666992;84;21033;-61
2022/07/29 11:21:49;;;;;;;11.15;4.20;;;;;;;26.49;50.55;94745.11;1656350;84;21168;-60
2022/07/29 11:24:31;;;;;;;10.25;5.20;;;;;;;26.08;53.52;94761.98;1664474;84;21089;-59
2022/07/29 11:27:12;;;;;;;6.92;5.08;;;;;;;25.67;55.62;94770.22;1649319;84;21089;-62
2022/07/29 11:29:57;;;;;;;11.40;4.95;;;;;;;25.21;57.92;94776.53;1663536;85;21871;-58
2022/07/29 11:32:28;;;;;;;6.62;4.55;;;;;;;24.62;60.30;94801.78;1654989;84;21058;-61
2022/07/29 11:35:24;;;;;;;10.72;5.55;;;;;;;23.97;61.91;94792.29;1615881;85;21123;-62
2022/07/29 11:38:29;;;;;;;6.22;3.70;;;;;;;23.42;64.73;94807.05;1641088;85;21431;-59
2022/07/29 11:41:25;;;;;;;6.92;4.83;;;;;;;22.89;65.25;94814.91;1647330;85;21492;-61
2022/07/29 11:43:59;;;;;;;6.28;4.30;;;;;;;22.48;67.27;94803.03;1658173;85;21259;-62
2022/07/29 11:46:51;;;;;;;6.08;4.60;;;;;;;22.18;69.48;94788.86;1669428;84;20970;-58
2022/07/29 11:49:26;;;;;;;;;;;;;;;21.99;71.19;94791.44;1662300;84;21101;-59
2022/07/29 11:51:56;;;;;;;5.25;3.65;;;;;;;21.93;72.44;94802.68;1662311;84;20161;-57
2022/07/29 11:54:26;;;;;;;4.22;3.40;;;;;;;21.91;72.20;94810.07;1654004;86;21086;-63
2022/07/29 11:56:54;;;;;;;4.20;3.80;;;;;;;21.93;71.29;94808.91;1635770;85;22318;-58
2022/07/29 11:59:24;;;;;;;4.70;3.52;;;;;;;21.91;71.53;94812.88;1633834;85;21104;-58
2022/07/29 12:01:58;;;;;;;4.58;3.60;;;;;;;21.86;71.85;94816.48;1664363;84;22301;-61